createdAt,value
2023-05-24T00:04:29.320Z,101000.00
2023-05-24T00:09:34.087Z,100998.00
2023-05-24T00:14:37.393Z,100990.00
2023-05-24T00:19:40.200Z,101001.00
2023-05-24T00:24:44.446Z,101000.00
2023-05-24T00:29:49.990Z,101010.00
2023-05-24T00:34:55.253Z,101006.00
2023-05-24T00:39:59.371Z,100999.00
2023-05-24T00:45:06.484Z,100997.00
2023-05-24T00:50:13.012Z,100986.00
2023-05-24T00:55:18.658Z,100989.00
2023-05-24T01:00:22.061Z,100988.00
2023-05-24T01:05:26.391Z,100986.00
2023-05-24T01:10:54.361Z,100982.00
2023-05-24T01:16:08.265Z,100987.00
2023-05-24T01:21:35.516Z,100985.00
2023-05-24T01:27:01.334Z,100996.00
2023-05-24T01:32:05.066Z,100986.00
2023-05-24T01:37:08.049Z,100993.00
2023-05-24T01:42:38.003Z,100998.00
2023-05-24T01:47:57.421Z,100992.00
2023-05-24T01:53:07.543Z,100983.00
2023-05-24T01:58:18.021Z,100987.00
2023-05-24T02:03:21.595Z,100991.00
2023-05-24T02:08:30.201Z,100991.00
2023-05-24T02:13:34.629Z,100999.00
2023-05-24T02:18:37.307Z,100995.00
2023-05-24T02:23:43.802Z,100985.00
2023-05-24T02:28:49.964Z,100985.00
2023-05-24T02:33:53.012Z,100999.00
2023-05-24T02:38:56.708Z,100994.00
2023-05-24T02:44:01.158Z,100989.00
2023-05-24T02:49:03.934Z,100985.00
2023-05-24T02:54:07.344Z,100996.00
2023-05-24T02:59:14.442Z,100991.00
2023-05-24T03:04:20.295Z,100991.00
2023-05-24T03:09:25.763Z,100990.00
2023-05-24T03:14:30.822Z,100994.00
2023-05-24T03:19:36.863Z,100995.00
2023-05-24T03:24:39.546Z,100989.00
2023-05-24T03:29:44.752Z,100984.00
2023-05-24T03:34:48.454Z,100998.00
2023-05-24T03:39:52.380Z,101006.00
2023-05-24T03:45:37.621Z,101010.00
2023-05-24T03:50:41.136Z,101015.00
2023-05-24T03:55:44.205Z,101012.00
2023-05-24T04:00:52.116Z,101026.00
2023-05-24T04:06:02.973Z,101036.00
2023-05-24T04:11:06.259Z,101045.00
2023-05-24T04:16:10.350Z,101044.00
2023-05-24T04:21:13.102Z,101046.00
2023-05-24T04:26:16.064Z,101051.00
2023-05-24T04:31:21.496Z,101053.00
2023-05-24T04:36:24.377Z,101061.00
2023-05-24T04:41:29.541Z,101064.00
2023-05-24T04:46:33.903Z,101081.00
2023-05-24T04:51:36.678Z,101086.00
2023-05-24T04:56:39.642Z,101093.00
2023-05-24T05:01:44.324Z,101102.00
2023-05-24T05:06:47.292Z,101094.00
2023-05-24T05:11:49.996Z,101101.00
2023-05-24T05:16:56.557Z,101108.00
2023-05-24T05:22:00.117Z,101115.00
2023-05-24T05:27:03.570Z,101113.00
2023-05-24T05:32:08.298Z,101114.00
2023-05-24T05:37:11.870Z,101114.00
2023-05-24T05:42:14.784Z,101118.00
2023-05-24T05:47:19.781Z,101127.00
2023-05-24T05:52:23.228Z,101133.00
2023-05-24T05:57:27.002Z,101133.00
2023-05-24T06:02:35.704Z,101132.00
2023-05-24T06:08:18.809Z,101143.00
2023-05-24T06:13:20.299Z,101146.00
2023-05-24T06:18:27.989Z,101159.00
2023-05-24T06:23:47.825Z,101157.00
2023-05-24T06:28:51.840Z,101163.00
2023-05-24T06:34:33.197Z,101164.00
2023-05-24T06:39:36.967Z,101171.00
2023-05-24T06:45:12.160Z,101174.00
2023-05-24T06:51:12.876Z,101178.00
2023-05-24T06:56:19.870Z,101182.00
2023-05-24T07:01:24.444Z,101185.00
2023-05-24T07:06:34.301Z,101192.00
2023-05-24T07:11:40.047Z,101202.00
2023-05-24T07:16:44.292Z,101207.00
2023-05-24T07:21:56.927Z,101218.00
2023-05-24T07:27:19.580Z,101219.00
2023-05-24T07:32:35.152Z,101210.00
2023-05-24T07:37:46.404Z,101222.00
2023-05-24T07:42:57.726Z,101230.00
2023-05-24T07:48:01.879Z,101231.00
2023-05-24T07:53:10.571Z,101239.00
2023-05-24T07:58:22.320Z,101246.00
2023-05-24T08:03:27.191Z,101249.00
2023-05-24T08:08:37.763Z,101255.00
2023-05-24T08:13:43.475Z,101259.00
2023-05-24T08:18:46.741Z,101270.00
2023-05-24T08:23:51.766Z,101261.00
2023-05-24T08:28:59.619Z,101263.00
2023-05-24T08:34:06.711Z,101270.00
2023-05-24T08:39:12.357Z,101268.00
2023-05-24T08:44:17.067Z,101282.00
2023-05-24T08:49:33.785Z,101291.00
2023-05-24T08:54:41.134Z,101297.00
2023-05-24T08:59:54.115Z,101306.00
2023-05-24T09:05:04.958Z,101305.00
2023-05-24T09:10:14.464Z,101309.00
2023-05-24T09:15:25.463Z,101310.00
2023-05-24T09:20:39.487Z,101315.00
2023-05-24T09:25:49.303Z,101317.00
2023-05-24T09:31:32.925Z,101322.00
2023-05-24T09:37:00.593Z,101318.00
2023-05-24T09:42:19.703Z,101325.00
2023-05-24T09:47:33.737Z,101326.00
2023-05-24T09:52:39.736Z,101335.00
2023-05-24T09:57:50.412Z,101322.00
2023-05-24T10:03:03.163Z,101327.00
2023-05-24T10:08:13.310Z,101327.00
2023-05-24T10:13:23.761Z,101332.00
2023-05-24T10:18:29.064Z,101327.00
2023-05-24T10:23:39.235Z,101319.00
2023-05-24T10:28:57.841Z,101339.00
2023-05-24T10:34:09.765Z,101337.00
2023-05-24T10:39:21.657Z,101343.00
2023-05-24T10:44:31.045Z,101347.00
2023-05-24T10:49:37.896Z,101341.00
2023-05-24T10:55:03.375Z,101339.00
2023-05-24T11:00:57.125Z,101343.00
2023-05-24T11:06:04.776Z,101356.00
2023-05-24T11:16:40.950Z,101357.00
2023-05-24T11:21:52.600Z,101350.00
2023-05-24T11:27:04.827Z,101349.00
2023-05-24T11:32:16.362Z,101349.00
2023-05-24T11:37:31.533Z,101349.00
2023-05-24T11:42:50.391Z,101357.00
2023-05-24T11:48:04.453Z,101358.00
2023-05-24T11:53:11.784Z,101342.00
2023-05-24T11:58:23.928Z,101350.00
2023-05-24T12:03:30.652Z,101341.00
2023-05-24T12:08:33.874Z,101349.00
2023-05-24T12:13:36.978Z,101349.00
2023-05-24T12:19:02.370Z,101341.00
2023-05-24T12:24:14.008Z,101355.00
2023-05-24T12:29:20.586Z,101357.00
2023-05-24T12:34:29.392Z,101363.00
2023-05-24T12:39:42.590Z,101352.00
2023-05-24T12:44:46.630Z,101342.00
2023-05-24T12:50:07.249Z,101344.00
2023-05-24T12:55:54.894Z,101348.00
2023-05-24T13:00:59.439Z,101338.00
2023-05-24T13:06:08.938Z,101338.00
2023-05-24T13:11:36.194Z,101341.00
2023-05-24T13:16:39.571Z,101324.00
2023-05-24T13:21:49.146Z,101324.00
2023-05-24T13:26:54.897Z,101339.00
2023-05-24T13:31:58.802Z,101337.00
2023-05-24T13:37:06.223Z,101343.00
2023-05-24T13:42:09.425Z,101338.00
2023-05-24T13:47:13.467Z,101339.00
2023-05-24T13:52:22.880Z,101337.00
2023-05-24T13:57:31.258Z,101337.00
2023-05-24T14:02:37.302Z,101328.00
2023-05-24T14:07:45.336Z,101340.00
2023-05-24T14:12:56.444Z,101342.00
2023-05-24T14:18:09.525Z,101345.00
2023-05-24T14:23:13.821Z,101344.00
2023-05-24T14:28:16.540Z,101346.00
2023-05-24T14:33:19.464Z,101342.00
2023-05-24T14:38:23.617Z,101355.00
2023-05-24T14:43:27.099Z,101349.00
2023-05-24T14:48:30.174Z,101344.00
2023-05-24T14:53:34.316Z,101352.00
2023-05-24T14:58:37.245Z,101348.00
2023-05-24T15:03:40.169Z,101352.00
2023-05-24T15:08:44.530Z,101350.00
2023-05-24T15:13:47.070Z,101350.00
2023-05-24T15:18:49.732Z,101361.00
2023-05-24T15:23:53.677Z,101361.00
2023-05-24T15:28:56.589Z,101367.00
2023-05-24T15:33:59.179Z,101357.00
2023-05-24T15:39:03.746Z,101368.00
2023-05-24T15:44:07.504Z,101369.00
2023-05-24T15:49:12.787Z,101371.00
2023-05-24T15:54:17.001Z,101370.00
2023-05-24T15:59:21.517Z,101381.00
2023-05-24T16:04:25.358Z,101378.00
2023-05-24T16:09:29.608Z,101393.00
2023-05-24T16:14:32.380Z,101392.00
2023-05-24T16:19:35.255Z,101403.00
2023-05-24T16:24:39.643Z,101405.00
2023-05-24T16:29:42.326Z,101420.00
2023-05-24T16:34:56.020Z,101426.00
2023-05-24T16:40:01.423Z,101430.00
2023-05-24T16:45:05.451Z,101444.00
2023-05-24T16:50:09.439Z,101440.00
2023-05-24T16:55:14.685Z,101443.00
2023-05-24T17:00:18.662Z,101442.00
2023-05-24T17:05:21.315Z,101445.00
2023-05-24T17:10:25.363Z,101435.00
2023-05-24T17:15:28.182Z,101441.00
2023-05-24T17:20:31.007Z,101457.00
2023-05-24T17:25:35.118Z,101462.00
2023-05-24T17:30:37.904Z,101466.00
2023-05-24T17:35:41.758Z,101460.00
2023-05-24T17:40:47.325Z,101481.00
2023-05-24T17:45:50.232Z,101491.00
2023-05-24T17:50:53.439Z,101493.00
2023-05-24T17:56:10.379Z,101494.00
2023-05-24T18:01:18.992Z,101504.00
2023-05-24T18:06:28.923Z,101512.00
2023-05-24T18:12:02.413Z,101526.00
2023-05-24T18:17:08.645Z,101536.00
2023-05-24T18:22:21.603Z,101549.00
2023-05-24T18:27:38.758Z,101554.00
2023-05-24T18:33:04.511Z,101563.00
2023-05-24T18:38:11.977Z,101565.00
2023-05-24T18:43:17.366Z,101571.00
2023-05-24T18:48:23.757Z,101580.00
2023-05-24T18:53:30.465Z,101590.00
2023-05-24T18:58:36.795Z,101595.00
2023-05-24T19:03:45.733Z,101605.00
2023-05-24T19:09:07.545Z,101615.00
2023-05-24T19:14:18.498Z,101608.00
2023-05-24T19:19:22.497Z,101615.00
2023-05-24T19:30:37.855Z,101626.00
2023-05-24T19:35:48.840Z,101617.00
2023-05-24T19:40:55.379Z,101628.00
2023-05-24T19:46:06.332Z,101625.00
2023-05-24T19:51:14.849Z,101626.00
2023-05-24T19:56:34.579Z,101637.00
2023-05-24T20:01:45.098Z,101624.00
2023-05-24T20:06:49.387Z,101631.00
2023-05-24T20:12:03.076Z,101644.00
2023-05-24T20:17:16.879Z,101642.00
2023-05-24T20:22:21.592Z,101650.00
2023-05-24T20:27:40.038Z,101650.00
2023-05-24T20:32:53.375Z,101654.00
2023-05-24T20:37:59.053Z,101652.00
2023-05-24T20:43:19.198Z,101655.00
2023-05-24T20:48:29.434Z,101654.00
2023-05-24T20:53:47.608Z,101661.00
2023-05-24T20:58:53.028Z,101650.00
2023-05-24T21:04:04.616Z,101657.00
2023-05-24T21:09:11.345Z,101653.00
2023-05-24T21:14:23.151Z,101662.00
2023-05-24T21:19:30.694Z,101664.00
2023-05-24T21:24:51.478Z,101669.00
2023-05-24T21:30:10.222Z,101674.00
2023-05-24T21:35:17.385Z,101680.00
2023-05-24T21:40:25.307Z,101679.00
2023-05-24T21:45:36.058Z,101675.00
2023-05-24T21:56:27.517Z,101685.00
2023-05-24T22:01:47.354Z,101684.00
2023-05-24T22:07:19.956Z,101679.00
2023-05-24T22:12:30.179Z,101686.00
2023-05-24T22:17:44.873Z,101685.00
2023-05-24T22:22:58.090Z,101692.00
2023-05-24T22:28:18.508Z,101697.00
2023-05-24T22:33:30.029Z,101698.00
2023-05-24T22:44:07.447Z,101697.00
2023-05-24T22:49:37.688Z,101700.00
2023-05-24T22:55:00.654Z,101710.00
2023-05-24T23:00:13.242Z,101709.00
2023-05-24T23:05:18.488Z,101709.00
2023-05-24T23:10:32.414Z,101712.00
2023-05-24T23:15:43.218Z,101695.00
2023-05-24T23:20:54.998Z,101708.00
2023-05-24T23:27:00.263Z,101710.00
2023-05-24T23:32:34.830Z,101710.00
2023-05-24T23:37:39.872Z,101719.00
2023-05-24T23:42:57.509Z,101723.00
2023-05-24T23:48:22.711Z,101731.00
2023-05-24T23:53:47.327Z,101736.00
2023-05-24T23:59:24.722Z,101735.00
